sensor_id;sensor_type;location;lat;lon;timestamp;pressure;altitude;pressure_sealevel;temperature
72236;BMP280;60146;52.498;13.462;2024-01-10T00:02:19;102650.22;;;-5.68
72236;BMP280;60146;52.498;13.462;2024-01-10T00:04:45;102642.38;;;-5.65
72236;BMP280;60146;52.498;13.462;2024-01-10T00:07:10;102636.66;;;-5.68
72236;BMP280;60146;52.498;13.462;2024-01-10T00:09:35;102629.91;;;-5.69
72236;BMP280;60146;52.498;13.462;2024-01-10T00:12:01;102616.34;;;-5.70
72236;BMP280;60146;52.498;13.462;2024-01-10T00:14:26;102648.25;;;-5.54
72236;BMP280;60146;52.498;13.462;2024-01-10T00:16:51;102652.31;;;-5.62
72236;BMP280;60146;52.498;13.462;2024-01-10T00:19:17;102641.97;;;-5.50
72236;BMP280;60146;52.498;13.462;2024-01-10T00:21:43;102652.97;;;-5.39
72236;BMP280;60146;52.498;13.462;2024-01-10T00:24:08;102657.53;;;-5.53
72236;BMP280;60146;52.498;13.462;2024-01-10T00:26:33;102652.09;;;-5.48
72236;BMP280;60146;52.498;13.462;2024-01-10T00:28:59;102649.66;;;-5.61
72236;BMP280;60146;52.498;13.462;2024-01-10T00:31:24;102640.75;;;-5.66
72236;BMP280;60146;52.498;13.462;2024-01-10T00:33:49;102631.66;;;-5.59
72236;BMP280;60146;52.498;13.462;2024-01-10T00:36:15;102638.09;;;-5.75
72236;BMP280;60146;52.498;13.462;2024-01-10T00:38:40;102645.84;;;-5.66
72236;BMP280;60146;52.498;13.462;2024-01-10T00:41:05;102634.22;;;-5.70
72236;BMP280;60146;52.498;13.462;2024-01-10T00:43:31;102623.19;;;-5.70
72236;BMP280;60146;52.498;13.462;2024-01-10T00:45:57;102625.63;;;-5.69
72236;BMP280;60146;52.498;13.462;2024-01-10T00:48:22;102632.59;;;-5.60
72236;BMP280;60146;52.498;13.462;2024-01-10T00:50:47;102634.66;;;-5.54
72236;BMP280;60146;52.498;13.462;2024-01-10T00:53:13;102650.91;;;-5.55
72236;BMP280;60146;52.498;13.462;2024-01-10T00:55:39;102644.00;;;-5.64
72236;BMP280;60146;52.498;13.462;2024-01-10T00:58:04;102638.88;;;-5.64
72236;BMP280;60146;52.498;13.462;2024-01-10T01:00:30;102636.88;;;-5.61
72236;BMP280;60146;52.498;13.462;2024-01-10T01:02:55;102652.56;;;-5.65
72236;BMP280;60146;52.498;13.462;2024-01-10T01:05:20;102642.78;;;-5.49
72236;BMP280;60146;52.498;13.462;2024-01-10T01:07:46;102673.88;;;-5.34
72236;BMP280;60146;52.498;13.462;2024-01-10T01:10:11;102693.13;;;-5.41
72236;BMP280;60146;52.498;13.462;2024-01-10T01:12:37;102679.91;;;-5.45
72236;BMP280;60146;52.498;13.462;2024-01-10T01:15:03;102672.00;;;-5.43
72236;BMP280;60146;52.498;13.462;2024-01-10T01:17:28;102697.66;;;-5.55
72236;BMP280;60146;52.498;13.462;2024-01-10T01:19:54;102699.31;;;-5.65
72236;BMP280;60146;52.498;13.462;2024-01-10T01:22:19;102692.91;;;-5.70
72236;BMP280;60146;52.498;13.462;2024-01-10T01:24:45;102705.56;;;-5.79
72236;BMP280;60146;52.498;13.462;2024-01-10T01:27:10;102694.91;;;-5.73
72236;BMP280;60146;52.498;13.462;2024-01-10T01:29:35;102683.63;;;-5.71
72236;BMP280;60146;52.498;13.462;2024-01-10T01:32:01;102664.84;;;-5.48
72236;BMP280;60146;52.498;13.462;2024-01-10T01:34:26;102675.97;;;-5.60
72236;BMP280;60146;52.498;13.462;2024-01-10T01:36:51;102679.03;;;-5.66
72236;BMP280;60146;52.498;13.462;2024-01-10T01:39:18;102679.84;;;-5.66
72236;BMP280;60146;52.498;13.462;2024-01-10T01:41:43;102684.44;;;-5.49
72236;BMP280;60146;52.498;13.462;2024-01-10T01:44:08;102696.66;;;-5.63
72236;BMP280;60146;52.498;13.462;2024-01-10T01:46:35;102681.88;;;-5.60
72236;BMP280;60146;52.498;13.462;2024-01-10T01:49:03;102706.97;;;-5.65
72236;BMP280;60146;52.498;13.462;2024-01-10T01:51:29;102704.72;;;-5.69
72236;BMP280;60146;52.498;13.462;2024-01-10T01:53:55;102744.31;;;-5.64
72236;BMP280;60146;52.498;13.462;2024-01-10T01:56:21;102722.84;;;-5.61
72236;BMP280;60146;52.498;13.462;2024-01-10T01:58:52;102726.47;;;-5.64
72236;BMP280;60146;52.498;13.462;2024-01-10T02:01:19;102712.41;;;-5.58
72236;BMP280;60146;52.498;13.462;2024-01-10T02:03:47;102718.56;;;-5.50
72236;BMP280;60146;52.498;13.462;2024-01-10T02:06:12;102719.03;;;-5.45
72236;BMP280;60146;52.498;13.462;2024-01-10T02:08:37;102725.06;;;-5.57
72236;BMP280;60146;52.498;13.462;2024-01-10T02:11:03;102717.88;;;-5.52
72236;BMP280;60146;52.498;13.462;2024-01-10T02:13:30;102732.13;;;-5.49
72236;BMP280;60146;52.498;13.462;2024-01-10T02:15:57;102744.19;;;-5.62
72236;BMP280;60146;52.498;13.462;2024-01-10T02:18:22;102740.81;;;-5.73
72236;BMP280;60146;52.498;13.462;2024-01-10T02:20:48;102727.84;;;-5.81
72236;BMP280;60146;52.498;13.462;2024-01-10T02:23:13;102712.06;;;-5.75
72236;BMP280;60146;52.498;13.462;2024-01-10T02:25:40;102707.09;;;-5.66
72236;BMP280;60146;52.498;13.462;2024-01-10T02:28:06;102715.31;;;-5.73
72236;BMP280;60146;52.498;13.462;2024-01-10T02:30:32;102731.66;;;-5.54
72236;BMP280;60146;52.498;13.462;2024-01-10T02:32:57;102741.19;;;-5.56
72236;BMP280;60146;52.498;13.462;2024-01-10T02:35:22;102728.44;;;-5.56
72236;BMP280;60146;52.498;13.462;2024-01-10T02:37:48;102737.91;;;-5.69
72236;BMP280;60146;52.498;13.462;2024-01-10T02:40:16;102736.28;;;-5.70
72236;BMP280;60146;52.498;13.462;2024-01-10T02:42:42;102731.44;;;-5.73
72236;BMP280;60146;52.498;13.462;2024-01-10T02:45:07;102722.41;;;-5.77
72236;BMP280;60146;52.498;13.462;2024-01-10T02:47:33;102704.97;;;-5.72
72236;BMP280;60146;52.498;13.462;2024-01-10T02:49:58;102696.66;;;-5.74
72236;BMP280;60146;52.498;13.462;2024-01-10T02:52:23;102702.19;;;-5.58
72236;BMP280;60146;52.498;13.462;2024-01-10T02:54:49;102701.88;;;-5.65
72236;BMP280;60146;52.498;13.462;2024-01-10T02:57:14;102709.28;;;-5.72
72236;BMP280;60146;52.498;13.462;2024-01-10T02:59:39;102718.69;;;-5.73
72236;BMP280;60146;52.498;13.462;2024-01-10T03:02:05;102725.75;;;-5.76
72236;BMP280;60146;52.498;13.462;2024-01-10T03:04:30;102704.75;;;-5.80
72236;BMP280;60146;52.498;13.462;2024-01-10T03:06:55;102687.50;;;-5.66
72236;BMP280;60146;52.498;13.462;2024-01-10T03:09:22;102692.34;;;-5.63
72236;BMP280;60146;52.498;13.462;2024-01-10T03:11:47;102696.91;;;-5.66
72236;BMP280;60146;52.498;13.462;2024-01-10T03:14:13;102689.25;;;-5.66
72236;BMP280;60146;52.498;13.462;2024-01-10T03:16:38;102690.16;;;-5.67
72236;BMP280;60146;52.498;13.462;2024-01-10T03:19:03;102696.06;;;-5.56
72236;BMP280;60146;52.498;13.462;2024-01-10T03:21:29;102699.41;;;-5.34
72236;BMP280;60146;52.498;13.462;2024-01-10T03:23:59;102721.19;;;-5.41
72236;BMP280;60146;52.498;13.462;2024-01-10T03:26:25;102707.06;;;-5.44
72236;BMP280;60146;52.498;13.462;2024-01-10T03:28:51;102702.31;;;-5.60
72236;BMP280;60146;52.498;13.462;2024-01-10T03:31:17;102693.63;;;-5.57
72236;BMP280;60146;52.498;13.462;2024-01-10T03:33:43;102695.03;;;-5.64
72236;BMP280;60146;52.498;13.462;2024-01-10T03:36:12;102690.16;;;-5.67
72236;BMP280;60146;52.498;13.462;2024-01-10T03:38:38;102688.19;;;-5.74
72236;BMP280;60146;52.498;13.462;2024-01-10T03:41:04;102676.69;;;-5.80
72236;BMP280;60146;52.498;13.462;2024-01-10T03:43:29;102680.66;;;-5.76
72236;BMP280;60146;52.498;13.462;2024-01-10T03:45:54;102683.53;;;-5.80
72236;BMP280;60146;52.498;13.462;2024-01-10T03:48:20;102675.75;;;-5.79
72236;BMP280;60146;52.498;13.462;2024-01-10T03:50:45;102680.41;;;-5.84
72236;BMP280;60146;52.498;13.462;2024-01-10T03:53:11;102679.47;;;-5.83
72236;BMP280;60146;52.498;13.462;2024-01-10T03:55:36;102690.25;;;-5.79
72236;BMP280;60146;52.498;13.462;2024-01-10T03:58:01;102689.22;;;-5.77
72236;BMP280;60146;52.498;13.462;2024-01-10T04:00:27;102690.84;;;-5.76
72236;BMP280;60146;52.498;13.462;2024-01-10T04:02:53;102700.47;;;-5.79
72236;BMP280;60146;52.498;13.462;2024-01-10T04:05:19;102687.25;;;-5.84
72236;BMP280;60146;52.498;13.462;2024-01-10T04:07:45;102688.50;;;-5.90
72236;BMP280;60146;52.498;13.462;2024-01-10T04:10:11;102692.69;;;-5.78
72236;BMP280;60146;52.498;13.462;2024-01-10T04:12:39;102705.91;;;-5.84
72236;BMP280;60146;52.498;13.462;2024-01-10T04:15:05;102692.22;;;-5.72
72236;BMP280;60146;52.498;13.462;2024-01-10T04:17:31;102681.91;;;-5.70
72236;BMP280;60146;52.498;13.462;2024-01-10T04:19:56;102708.72;;;-5.65
72236;BMP280;60146;52.498;13.462;2024-01-10T04:22:23;102716.91;;;-5.83
72236;BMP280;60146;52.498;13.462;2024-01-10T04:24:49;102699.56;;;-5.67
72236;BMP280;60146;52.498;13.462;2024-01-10T04:27:15;102716.72;;;-5.80
72236;BMP280;60146;52.498;13.462;2024-01-10T04:29:40;102696.91;;;-5.66
72236;BMP280;60146;52.498;13.462;2024-01-10T04:32:06;102703.59;;;-5.54
72236;BMP280;60146;52.498;13.462;2024-01-10T04:34:31;102718.09;;;-5.44
72236;BMP280;60146;52.498;13.462;2024-01-10T04:36:57;102718.09;;;-5.55
72236;BMP280;60146;52.498;13.462;2024-01-10T04:39:22;102721.44;;;-5.54
72236;BMP280;60146;52.498;13.462;2024-01-10T04:41:48;102713.09;;;-5.45
72236;BMP280;60146;52.498;13.462;2024-01-10T04:44:13;102728.22;;;-5.53
72236;BMP280;60146;52.498;13.462;2024-01-10T04:46:39;102727.75;;;-5.47
72236;BMP280;60146;52.498;13.462;2024-01-10T04:49:06;102726.34;;;-5.51
72236;BMP280;60146;52.498;13.462;2024-01-10T04:51:31;102719.03;;;-5.56
72236;BMP280;60146;52.498;13.462;2024-01-10T04:53:57;102715.19;;;-5.50
72236;BMP280;60146;52.498;13.462;2024-01-10T04:56:23;102716.94;;;-5.51
72236;BMP280;60146;52.498;13.462;2024-01-10T04:58:48;102723.19;;;-5.44
72236;BMP280;60146;52.498;13.462;2024-01-10T05:01:14;102738.50;;;-5.44
72236;BMP280;60146;52.498;13.462;2024-01-10T05:03:40;102742.22;;;-5.59
72236;BMP280;60146;52.498;13.462;2024-01-10T05:06:05;102743.53;;;-5.64
72236;BMP280;60146;52.498;13.462;2024-01-10T05:08:31;102743.81;;;-5.68
72236;BMP280;60146;52.498;13.462;2024-01-10T05:10:56;102729.13;;;-5.65
72236;BMP280;60146;52.498;13.462;2024-01-10T05:13:22;102753.47;;;-5.61
72236;BMP280;60146;52.498;13.462;2024-01-10T05:15:47;102742.44;;;-5.72
72236;BMP280;60146;52.498;13.462;2024-01-10T05:18:12;102755.34;;;-5.63
72236;BMP280;60146;52.498;13.462;2024-01-10T05:20:38;102753.47;;;-5.72
72236;BMP280;60146;52.498;13.462;2024-01-10T05:23:03;102739.78;;;-5.82
72236;BMP280;60146;52.498;13.462;2024-01-10T05:25:29;102744.19;;;-5.73
72236;BMP280;60146;52.498;13.462;2024-01-10T05:27:54;102745.59;;;-5.80
72236;BMP280;60146;52.498;13.462;2024-01-10T05:30:20;102734.44;;;-5.68
72236;BMP280;60146;52.498;13.462;2024-01-10T05:32:45;102728.63;;;-5.70
72236;BMP280;60146;52.498;13.462;2024-01-10T05:35:11;102732.59;;;-5.77
72236;BMP280;60146;52.498;13.462;2024-01-10T05:37:36;102719.59;;;-5.74
72236;BMP280;60146;52.498;13.462;2024-01-10T05:40:02;102726.56;;;-5.76
72236;BMP280;60146;52.498;13.462;2024-01-10T05:42:29;102715.19;;;-5.61
72236;BMP280;60146;52.498;13.462;2024-01-10T05:44:55;102728.31;;;-5.66
72236;BMP280;60146;52.498;13.462;2024-01-10T05:47:20;102708.72;;;-5.65
72236;BMP280;60146;52.498;13.462;2024-01-10T05:49:46;102733.44;;;-5.66
72236;BMP280;60146;52.498;13.462;2024-01-10T05:52:11;102733.31;;;-5.75
72236;BMP280;60146;52.498;13.462;2024-01-10T05:54:37;102725.63;;;-5.86
72236;BMP280;60146;52.498;13.462;2024-01-10T05:57:02;102704.06;;;-5.92
72236;BMP280;60146;52.498;13.462;2024-01-10T05:59:28;102706.72;;;-5.72
72236;BMP280;60146;52.498;13.462;2024-01-10T06:01:56;102717.31;;;-5.66
72236;BMP280;60146;52.498;13.462;2024-01-10T06:04:21;102708.59;;;-5.74
72236;BMP280;60146;52.498;13.462;2024-01-10T06:06:46;102702.44;;;-5.72
72236;BMP280;60146;52.498;13.462;2024-01-10T06:09:12;102699.06;;;-5.62
72236;BMP280;60146;52.498;13.462;2024-01-10T06:11:43;102706.72;;;-5.62
72236;BMP280;60146;52.498;13.462;2024-01-10T06:14:09;102704.56;;;-5.66
72236;BMP280;60146;52.498;13.462;2024-01-10T06:16:34;102713.44;;;-5.61
72236;BMP280;60146;52.498;13.462;2024-01-10T06:19:00;102707.06;;;-5.55
72236;BMP280;60146;52.498;13.462;2024-01-10T06:21:26;102704.06;;;-5.60
72236;BMP280;60146;52.498;13.462;2024-01-10T06:23:51;102702.56;;;-5.52
72236;BMP280;60146;52.498;13.462;2024-01-10T06:26:16;102705.91;;;-5.62
72236;BMP280;60146;52.498;13.462;2024-01-10T06:28:42;102708.91;;;-5.68
72236;BMP280;60146;52.498;13.462;2024-01-10T06:31:08;102706.84;;;-5.74
72236;BMP280;60146;52.498;13.462;2024-01-10T06:33:33;102701.75;;;-5.74
72236;BMP280;60146;52.498;13.462;2024-01-10T06:35:59;102689.00;;;-5.74
72236;BMP280;60146;52.498;13.462;2024-01-10T06:38:24;102694.09;;;-5.63
72236;BMP280;60146;52.498;13.462;2024-01-10T06:40:49;102709.63;;;-5.55
72236;BMP280;60146;52.498;13.462;2024-01-10T06:43:15;102721.00;;;-5.48
72236;BMP280;60146;52.498;13.462;2024-01-10T06:45:41;102711.00;;;-5.41
72236;BMP280;60146;52.498;13.462;2024-01-10T06:48:07;102728.41;;;-5.35
72236;BMP280;60146;52.498;13.462;2024-01-10T06:50:33;102718.00;;;-5.53
72236;BMP280;60146;52.498;13.462;2024-01-10T06:52:59;102716.34;;;-5.54
72236;BMP280;60146;52.498;13.462;2024-01-10T06:55:24;102722.63;;;-5.47
72236;BMP280;60146;52.498;13.462;2024-01-10T06:57:50;102720.97;;;-5.59
72236;BMP280;60146;52.498;13.462;2024-01-10T07:00:19;102709.16;;;-5.60
72236;BMP280;60146;52.498;13.462;2024-01-10T07:02:46;102715.19;;;-5.61
72236;BMP280;60146;52.498;13.462;2024-01-10T07:05:11;102714.13;;;-5.69
72236;BMP280;60146;52.498;13.462;2024-01-10T07:07:37;102702.91;;;-5.56
72236;BMP280;60146;52.498;13.462;2024-01-10T07:10:03;102715.19;;;-5.50
72236;BMP280;60146;52.498;13.462;2024-01-10T07:12:33;102702.88;;;-5.35
72236;BMP280;60146;52.498;13.462;2024-01-10T07:14:58;102708.25;;;-5.38
72236;BMP280;60146;52.498;13.462;2024-01-10T07:17:23;102707.19;;;-5.35
72236;BMP280;60146;52.498;13.462;2024-01-10T07:19:49;102714.16;;;-5.37
72236;BMP280;60146;52.498;13.462;2024-01-10T07:22:14;102701.03;;;-5.43
72236;BMP280;60146;52.498;13.462;2024-01-10T07:24:40;102713.91;;;-5.56
72236;BMP280;60146;52.498;13.462;2024-01-10T07:27:05;102713.19;;;-5.68
72236;BMP280;60146;52.498;13.462;2024-01-10T07:29:32;102724.13;;;-5.56
72236;BMP280;60146;52.498;13.462;2024-01-10T07:31:57;102712.22;;;-5.66
72236;BMP280;60146;52.498;13.462;2024-01-10T07:34:23;102698.81;;;-5.59
72236;BMP280;60146;52.498;13.462;2024-01-10T07:36:48;102701.28;;;-5.57
72236;BMP280;60146;52.498;13.462;2024-01-10T07:39:14;102706.25;;;-5.23
72236;BMP280;60146;52.498;13.462;2024-01-10T07:41:46;102708.38;;;-4.97
72236;BMP280;60146;52.498;13.462;2024-01-10T07:44:11;102739.50;;;-4.62
72236;BMP280;60146;52.498;13.462;2024-01-10T07:46:37;102753.47;;;-4.76
72236;BMP280;60146;52.498;13.462;2024-01-10T07:49:03;102757.91;;;-4.78
72236;BMP280;60146;52.498;13.462;2024-01-10T07:51:30;102762.19;;;-4.79
72236;BMP280;60146;52.498;13.462;2024-01-10T07:53:55;102753.03;;;-4.92
72236;BMP280;60146;52.498;13.462;2024-01-10T07:56:21;102755.03;;;-4.95
72236;BMP280;60146;52.498;13.462;2024-01-10T07:58:46;102750.31;;;-5.00
72236;BMP280;60146;52.498;13.462;2024-01-10T08:01:11;102767.97;;;-5.08
72236;BMP280;60146;52.498;13.462;2024-01-10T08:03:37;102772.00;;;-4.95
72236;BMP280;60146;52.498;13.462;2024-01-10T08:06:03;102789.66;;;-5.02
72236;BMP280;60146;52.498;13.462;2024-01-10T08:08:28;102778.59;;;-4.92
72236;BMP280;60146;52.498;13.462;2024-01-10T08:10:56;102768.78;;;-5.07
72236;BMP280;60146;52.498;13.462;2024-01-10T08:13:21;102772.50;;;-5.00
72236;BMP280;60146;52.498;13.462;2024-01-10T08:15:46;102780.81;;;-4.88
72236;BMP280;60146;52.498;13.462;2024-01-10T08:18:12;102783.59;;;-4.80
72236;BMP280;60146;52.498;13.462;2024-01-10T08:20:39;102787.75;;;-4.79
72236;BMP280;60146;52.498;13.462;2024-01-10T08:23:04;102784.25;;;-4.78
72236;BMP280;60146;52.498;13.462;2024-01-10T08:25:29;102784.75;;;-4.84
72236;BMP280;60146;52.498;13.462;2024-01-10T08:27:55;102796.69;;;-4.73
72236;BMP280;60146;52.498;13.462;2024-01-10T08:30:22;102801.09;;;-4.75
72236;BMP280;60146;52.498;13.462;2024-01-10T08:32:47;102805.38;;;-4.65
72236;BMP280;60146;52.498;13.462;2024-01-10T08:35:13;102818.66;;;-4.40
72236;BMP280;60146;52.498;13.462;2024-01-10T08:37:39;102826.72;;;-4.14
72236;BMP280;60146;52.498;13.462;2024-01-10T08:40:10;102830.72;;;-3.80
72236;BMP280;60146;52.498;13.462;2024-01-10T08:42:38;102853.00;;;-3.72
72236;BMP280;60146;52.498;13.462;2024-01-10T08:45:04;102867.81;;;-3.75
72236;BMP280;60146;52.498;13.462;2024-01-10T08:47:29;102886.31;;;-3.82
72236;BMP280;60146;52.498;13.462;2024-01-10T08:49:58;102877.78;;;-3.92
72236;BMP280;60146;52.498;13.462;2024-01-10T08:52:23;102884.66;;;-3.93
72236;BMP280;60146;52.498;13.462;2024-01-10T08:54:49;102889.50;;;-3.90
72236;BMP280;60146;52.498;13.462;2024-01-10T08:57:14;102892.31;;;-3.93
72236;BMP280;60146;52.498;13.462;2024-01-10T08:59:41;102896.69;;;-3.84
72236;BMP280;60146;52.498;13.462;2024-01-10T09:02:07;102896.47;;;-3.81
72236;BMP280;60146;52.498;13.462;2024-01-10T09:04:32;102896.47;;;-3.81
72236;BMP280;60146;52.498;13.462;2024-01-10T09:06:58;102899.38;;;-3.65
72236;BMP280;60146;52.498;13.462;2024-01-10T09:09:23;102889.81;;;-3.63
72236;BMP280;60146;52.498;13.462;2024-01-10T09:11:49;102897.97;;;-3.58
72236;BMP280;60146;52.498;13.462;2024-01-10T09:14:14;102900.41;;;-3.57
72236;BMP280;60146;52.498;13.462;2024-01-10T09:16:40;102902.34;;;-3.50
72236;BMP280;60146;52.498;13.462;2024-01-10T09:19:05;102902.63;;;-3.43
72236;BMP280;60146;52.498;13.462;2024-01-10T09:21:30;102904.56;;;-3.36
72236;BMP280;60146;52.498;13.462;2024-01-10T09:23:56;102909.06;;;-3.28
72236;BMP280;60146;52.498;13.462;2024-01-10T09:26:22;102917.31;;;-3.16
72236;BMP280;60146;52.498;13.462;2024-01-10T09:28:47;102912.75;;;-3.12
72236;BMP280;60146;52.498;13.462;2024-01-10T09:31:13;102922.16;;;-3.02
72236;BMP280;60146;52.498;13.462;2024-01-10T09:33:38;102925.75;;;-3.04
72236;BMP280;60146;52.498;13.462;2024-01-10T09:36:04;102918.06;;;-3.04
72236;BMP280;60146;52.498;13.462;2024-01-10T09:38:34;102917.97;;;-2.84
72236;BMP280;60146;52.498;13.462;2024-01-10T09:41:00;102915.00;;;-2.51
72236;BMP280;60146;52.498;13.462;2024-01-10T09:43:28;102912.88;;;-1.36
72236;BMP280;60146;52.498;13.462;2024-01-10T09:45:57;102949.28;;;0.17
72236;BMP280;60146;52.498;13.462;2024-01-10T09:48:23;102985.47;;;1.64
72236;BMP280;60146;52.498;13.462;2024-01-10T09:50:50;103018.34;;;3.55
72236;BMP280;60146;52.498;13.462;2024-01-10T09:53:22;103031.13;;;4.93
72236;BMP280;60146;52.498;13.462;2024-01-10T09:55:52;103044.31;;;6.62
72236;BMP280;60146;52.498;13.462;2024-01-10T09:58:18;103052.28;;;7.59
72236;BMP280;60146;52.498;13.462;2024-01-10T10:00:43;103049.50;;;7.86
72236;BMP280;60146;52.498;13.462;2024-01-10T10:03:09;103051.22;;;8.49
72236;BMP280;60146;52.498;13.462;2024-01-10T10:05:39;103041.66;;;9.70
72236;BMP280;60146;52.498;13.462;2024-01-10T10:08:11;103052.81;;;11.06
72236;BMP280;60146;52.498;13.462;2024-01-10T10:10:36;103049.72;;;11.72
72236;BMP280;60146;52.498;13.462;2024-01-10T10:13:08;103055.72;;;12.39
72236;BMP280;60146;52.498;13.462;2024-01-10T10:15:36;103050.47;;;12.67
72236;BMP280;60146;52.498;13.462;2024-01-10T10:18:01;103043.91;;;12.42
72236;BMP280;60146;52.498;13.462;2024-01-10T10:20:28;103039.91;;;10.06
72236;BMP280;60146;52.498;13.462;2024-01-10T10:23:04;103038.19;;;8.36
72236;BMP280;60146;52.498;13.462;2024-01-10T10:25:35;103029.31;;;7.16
72236;BMP280;60146;52.498;13.462;2024-01-10T10:28:04;103024.03;;;5.97
72236;BMP280;60146;52.498;13.462;2024-01-10T10:30:30;103021.69;;;5.20
72236;BMP280;60146;52.498;13.462;2024-01-10T10:32:56;103020.13;;;3.98
72236;BMP280;60146;52.498;13.462;2024-01-10T10:35:22;103024.47;;;3.32
72236;BMP280;60146;52.498;13.462;2024-01-10T10:37:49;103021.00;;;2.56
72236;BMP280;60146;52.498;13.462;2024-01-10T10:40:15;103021.22;;;2.15
72236;BMP280;60146;52.498;13.462;2024-01-10T10:42:44;103013.38;;;1.60
72236;BMP280;60146;52.498;13.462;2024-01-10T10:45:14;103011.25;;;1.48
72236;BMP280;60146;52.498;13.462;2024-01-10T10:47:41;103013.75;;;1.17
72236;BMP280;60146;52.498;13.462;2024-01-10T10:50:21;103019.03;;;0.83
72236;BMP280;60146;52.498;13.462;2024-01-10T10:52:47;103013.41;;;0.62
72236;BMP280;60146;52.498;13.462;2024-01-10T10:55:17;103016.91;;;0.53
72236;BMP280;60146;52.498;13.462;2024-01-10T10:57:49;103016.69;;;0.47
72236;BMP280;60146;52.498;13.462;2024-01-10T11:00:17;103026.66;;;0.42
72236;BMP280;60146;52.498;13.462;2024-01-10T11:02:44;103018.66;;;0.53
72236;BMP280;60146;52.498;13.462;2024-01-10T11:05:10;103028.41;;;0.42
72236;BMP280;60146;52.498;13.462;2024-01-10T11:07:37;103017.50;;;0.47
72236;BMP280;60146;52.498;13.462;2024-01-10T11:10:05;103028.16;;;0.27
72236;BMP280;60146;52.498;13.462;2024-01-10T11:18:10;103014.53;;;0.18
72236;BMP280;60146;52.498;13.462;2024-01-10T11:21:00;103013.22;;;0.14
72236;BMP280;60146;52.498;13.462;2024-01-10T11:23:48;103009.41;;;0.00
72236;BMP280;60146;52.498;13.462;2024-01-10T11:26:15;103002.41;;;-0.07
72236;BMP280;60146;52.498;13.462;2024-01-10T11:28:41;103006.59;;;-0.06
72236;BMP280;60146;52.498;13.462;2024-01-10T11:31:07;103004.91;;;0.02
72236;BMP280;60146;52.498;13.462;2024-01-10T11:33:35;103006.16;;;-0.01
72236;BMP280;60146;52.498;13.462;2024-01-10T11:36:20;103004.69;;;-0.04
72236;BMP280;60146;52.498;13.462;2024-01-10T11:38:54;102999.75;;;0.02
72236;BMP280;60146;52.498;13.462;2024-01-10T11:41:31;103002.50;;;0.01
72236;BMP280;60146;52.498;13.462;2024-01-10T11:46:41;103001.38;;;-0.14
72236;BMP280;60146;52.498;13.462;2024-01-10T11:49:11;102991.16;;;-0.06
72236;BMP280;60146;52.498;13.462;2024-01-10T11:51:42;102985.34;;;-0.08
72236;BMP280;60146;52.498;13.462;2024-01-10T11:54:07;102987.91;;;-0.08
72236;BMP280;60146;52.498;13.462;2024-01-10T11:56:42;102988.06;;;-0.09
72236;BMP280;60146;52.498;13.462;2024-01-10T11:59:16;102980.09;;;-0.16
72236;BMP280;60146;52.498;13.462;2024-01-10T12:01:43;102978.91;;;-0.04
72236;BMP280;60146;52.498;13.462;2024-01-10T12:04:08;102969.56;;;-0.05
72236;BMP280;60146;52.498;13.462;2024-01-10T12:06:37;102971.69;;;-0.01
72236;BMP280;60146;52.498;13.462;2024-01-10T12:09:03;102967.88;;;0.03
72236;BMP280;60146;52.498;13.462;2024-01-10T12:11:36;102964.03;;;0.07
72236;BMP280;60146;52.498;13.462;2024-01-10T12:14:04;102966.19;;;0.12
72236;BMP280;60146;52.498;13.462;2024-01-10T12:16:30;102957.19;;;0.16
72236;BMP280;60146;52.498;13.462;2024-01-10T12:18:55;102956.50;;;0.31
72236;BMP280;60146;52.498;13.462;2024-01-10T12:21:20;102961.16;;;0.35
72236;BMP280;60146;52.498;13.462;2024-01-10T12:23:46;102953.00;;;0.40
72236;BMP280;60146;52.498;13.462;2024-01-10T12:26:13;102949.28;;;0.42
72236;BMP280;60146;52.498;13.462;2024-01-10T12:28:39;102952.00;;;0.58
72236;BMP280;60146;52.498;13.462;2024-01-10T12:31:06;102947.06;;;0.47
72236;BMP280;60146;52.498;13.462;2024-01-10T12:33:36;102936.16;;;0.53
72236;BMP280;60146;52.498;13.462;2024-01-10T12:36:07;102934.63;;;0.68
72236;BMP280;60146;52.498;13.462;2024-01-10T12:38:33;102944.75;;;0.61
72236;BMP280;60146;52.498;13.462;2024-01-10T12:40:59;102935.94;;;0.71
72236;BMP280;60146;52.498;13.462;2024-01-10T12:43:25;102936.56;;;0.73
72236;BMP280;60146;52.498;13.462;2024-01-10T12:46:11;102933.88;;;0.83
72236;BMP280;60146;52.498;13.462;2024-01-10T12:48:38;102926.31;;;0.81
72236;BMP280;60146;52.498;13.462;2024-01-10T12:51:07;102928.56;;;0.76
72236;BMP280;60146;52.498;13.462;2024-01-10T12:53:37;102936.81;;;0.88
72236;BMP280;60146;52.498;13.462;2024-01-10T12:56:04;102932.63;;;2.29
72236;BMP280;60146;52.498;13.462;2024-01-10T12:58:31;102928.31;;;4.84
72236;BMP280;60146;52.498;13.462;2024-01-10T13:00:57;102931.03;;;7.04
72236;BMP280;60146;52.498;13.462;2024-01-10T13:03:23;102923.78;;;8.81
72236;BMP280;60146;52.498;13.462;2024-01-10T13:05:49;102926.72;;;10.33
72236;BMP280;60146;52.498;13.462;2024-01-10T13:08:14;102926.25;;;11.49
72236;BMP280;60146;52.498;13.462;2024-01-10T13:10:40;102926.91;;;12.60
72236;BMP280;60146;52.498;13.462;2024-01-10T13:13:06;102925.47;;;13.34
72236;BMP280;60146;52.498;13.462;2024-01-10T13:15:31;102922.16;;;12.90
72236;BMP280;60146;52.498;13.462;2024-01-10T13:17:57;102913.56;;;12.94
72236;BMP280;60146;52.498;13.462;2024-01-10T13:20:25;102917.69;;;13.06
72236;BMP280;60146;52.498;13.462;2024-01-10T13:22:51;102917.69;;;13.06
72236;BMP280;60146;52.498;13.462;2024-01-10T13:25:17;102912.06;;;13.77
72236;BMP280;60146;52.498;13.462;2024-01-10T13:27:42;102918.59;;;12.96
72236;BMP280;60146;52.498;13.462;2024-01-10T13:30:08;102918.53;;;13.12
72236;BMP280;60146;52.498;13.462;2024-01-10T13:32:37;102903.19;;;12.56
72236;BMP280;60146;52.498;13.462;2024-01-10T13:35:04;102911.31;;;13.02
72236;BMP280;60146;52.498;13.462;2024-01-10T13:37:29;102908.63;;;12.65
72236;BMP280;60146;52.498;13.462;2024-01-10T13:39:56;102914.75;;;12.87
72236;BMP280;60146;52.498;13.462;2024-01-10T13:42:22;102917.34;;;13.19
72236;BMP280;60146;52.498;13.462;2024-01-10T13:44:48;102911.06;;;12.56
72236;BMP280;60146;52.498;13.462;2024-01-10T13:47:14;102911.19;;;12.06
72236;BMP280;60146;52.498;13.462;2024-01-10T13:49:39;102906.19;;;11.10
72236;BMP280;60146;52.498;13.462;2024-01-10T13:52:05;102910.09;;;9.74